Time;durP1;ratioP1;P1;durP2;ratioP2;P2;SDS_P1;SDS_P2;PMS_P1;PMS_P2;Temp;Humidity;BMP_temperature;BMP_pressure;BME280_temperature;BME280_humidity;BME280_pressure;Samples;Min_cycle;Max_cycle;Signal;HPM_P1;HPM_P2
2022/11/27 00:00:07;;;;;;;22.47;14.30;;;-0.60;99.90;;;;;;5093234;28;20067;-74
2022/11/27 00:02:32;;;;;;;27.53;13.77;;;-0.60;99.90;;;;;;5093291;28;20528;-72
2022/11/27 00:04:58;;;;;;;22.13;13.77;;;-0.70;99.90;;;;;;5093616;28;20031;-72
2022/11/27 00:07:24;;;;;;;22.23;13.63;;;-0.70;99.90;;;;;;5093043;28;20345;-72
2022/11/27 00:09:49;;;;;;;22.03;13.57;;;-0.70;99.90;;;;;;5093310;28;20380;-72
2022/11/27 00:12:15;;;;;;;19.13;12.93;;;-0.70;99.90;;;;;;5092924;28;20028;-72
2022/11/27 00:14:40;;;;;;;20.80;13.50;;;-0.70;99.90;;;;;;5093100;28;20062;-72
2022/11/27 00:17:06;;;;;;;20.93;12.83;;;-0.70;99.90;;;;;;5093039;28;20100;-72
2022/11/27 00:19:31;;;;;;;23.20;14.70;;;-0.70;99.90;;;;;;5092869;28;20031;-73
2022/11/27 00:21:57;;;;;;;22.63;13.97;;;-0.70;99.90;;;;;;5093102;28;20081;-73
2022/11/27 00:24:22;;;;;;;20.30;13.23;;;-0.80;99.90;;;;;;5091892;28;20024;-73
2022/11/27 00:26:48;;;;;;;20.80;13.97;;;-0.80;99.90;;;;;;5092747;28;20107;-72
2022/11/27 00:29:14;;;;;;;20.47;13.70;;;-0.80;99.90;;;;;;5092746;28;20024;-73
2022/11/27 00:31:39;;;;;;;20.63;13.83;;;-0.80;99.90;;;;;;5092808;28;20024;-73
2022/11/27 00:34:07;;;;;;;21.03;13.40;;;-0.80;99.90;;;;;;5092877;28;20051;-73
2022/11/27 00:36:33;;;;;;;23.10;14.40;;;-0.80;99.90;;;;;;5092717;28;20021;-73
2022/11/27 00:38:59;;;;;;;23.57;14.43;;;-0.80;99.90;;;;;;5092678;28;20115;-72
2022/11/27 00:41:28;;;;;;;23.27;14.77;;;-0.80;99.90;;;;;;5092596;28;20118;-72
2022/11/27 00:43:54;;;;;;;21.93;14.30;;;-0.80;99.90;;;;;;5092226;28;20020;-73
2022/11/27 00:46:23;;;;;;;24.40;14.27;;;-0.80;99.90;;;;;;5092640;28;20051;-72
2022/11/27 00:48:48;;;;;;;22.10;13.90;;;-0.80;99.90;;;;;;5092145;28;20056;-73
2022/11/27 00:51:19;;;;;;;22.27;14.30;;;-0.80;99.90;;;;;;5092661;28;20114;-73
2022/11/27 00:53:45;;;;;;;24.50;14.83;;;-0.80;99.90;;;;;;5092126;28;20133;-73
2022/11/27 00:56:17;;;;;;;19.53;13.33;;;-0.80;99.90;;;;;;5092340;28;20496;-73
2022/11/27 00:58:42;;;;;;;19.47;13.93;;;-0.80;99.90;;;;;;5092288;28;20020;-73
2022/11/27 01:01:13;;;;;;;23.47;14.60;;;-0.80;99.90;;;;;;5092089;28;20028;-73
2022/11/27 01:03:39;;;;;;;43.77;21.77;;;-0.80;99.90;;;;;;5091918;28;20145;-73
2022/11/27 01:06:06;;;;;;;41.00;20.93;;;-0.80;99.90;;;;;;5092159;28;20118;-73
2022/11/27 01:08:33;;;;;;;40.43;19.97;;;-0.90;99.90;;;;;;5091938;28;20020;-72
2022/11/27 01:10:59;;;;;;;26.53;15.13;;;-0.90;99.90;;;;;;5091766;28;20024;-73
2022/11/27 01:13:33;;;;;;;24.20;14.60;;;-0.80;99.90;;;;;;5091697;28;20467;-72
2022/11/27 01:16:04;;;;;;;16.05;10.45;;;-0.80;99.90;;;;;;5091878;28;20028;-73
2022/11/27 01:18:29;;;;;;;24.23;12.87;;;-0.80;99.90;;;;;;5091965;28;20721;-72
2022/11/27 01:20:55;;;;;;;23.57;14.33;;;-0.80;99.90;;;;;;5091851;28;20036;-73
2022/11/27 01:23:22;;;;;;;23.60;13.90;;;-0.80;99.90;;;;;;5091419;28;20067;-73
2022/11/27 01:25:48;;;;;;;22.07;14.63;;;-0.80;99.90;;;;;;5091462;28;20042;-72
2022/11/27 01:28:15;;;;;;;20.60;13.77;;;-0.90;99.90;;;;;;5092605;28;20016;-72
2022/11/27 01:30:41;;;;;;;20.93;13.53;;;-0.90;99.90;;;;;;5093442;28;20028;-72
2022/11/27 01:33:07;;;;;;;21.57;13.20;;;-0.90;99.90;;;;;;5092898;28;20024;-73
2022/11/27 01:35:33;;;;;;;18.80;12.43;;;-0.90;99.90;;;;;;5092939;28;20032;-72
2022/11/27 01:37:58;;;;;;;20.90;13.33;;;-0.90;99.90;;;;;;5092817;28;20435;-72
2022/11/27 01:40:25;;;;;;;18.23;11.23;;;-0.90;99.90;;;;;;5092607;28;20024;-73
2022/11/27 01:42:51;;;;;;;19.97;12.50;;;-0.90;99.90;;;;;;5091318;28;20047;-73
2022/11/27 01:45:19;;;;;;;18.60;11.90;;;-0.90;99.90;;;;;;5091343;28;20055;-72
2022/11/27 01:47:57;;;;;;;19.20;12.57;;;-0.90;99.90;;;;;;5091033;28;20044;-73
2022/11/27 01:50:31;;;;;;;20.53;12.10;;;-0.90;99.90;;;;;;5091367;28;20472;-73
2022/11/27 01:53:06;;;;;;;18.63;11.47;;;-0.90;99.90;;;;;;5072943;28;20024;-73
2022/11/27 01:55:36;;;;;;;18.43;11.50;;;-1.00;99.90;;;;;;5091389;28;20043;-73
2022/11/27 01:58:13;;;;;;;17.90;11.03;;;-1.00;99.90;;;;;;5091438;28;20764;-73
2022/11/27 02:00:39;;;;;;;20.50;12.07;;;-1.00;99.90;;;;;;5090960;28;20066;-72
2022/11/27 02:03:05;;;;;;;18.20;10.20;;;-1.00;99.90;;;;;;5090830;28;20052;-72
2022/11/27 02:05:32;;;;;;;16.20;10.50;;;-1.00;99.90;;;;;;5091124;28;20024;-73
2022/11/27 02:08:01;;;;;;;19.00;11.20;;;-1.00;99.90;;;;;;5091097;28;20024;-73
2022/11/27 02:10:48;;;;;;;18.23;10.87;;;-1.10;99.90;;;;;;5091086;28;20759;-73
2022/11/27 02:13:44;;;;;;;15.40;10.83;;;-1.10;99.90;;;;;;5090899;28;20442;-72
2022/11/27 02:16:24;;;;;;;16.23;10.48;;;-1.10;99.90;;;;;;5090809;28;20027;-72
2022/11/27 02:19:33;;;;;;;17.37;10.70;;;-1.10;99.90;;;;;;5090639;28;20131;-72
2022/11/27 02:22:21;;;;;;;14.90;10.20;;;-1.10;99.90;;;;;;5069422;28;20040;-72
2022/11/27 02:25:25;;;;;;;18.40;10.90;;;-1.10;99.90;;;;;;5090775;28;20024;-72
2022/11/27 02:28:04;;;;;;;16.63;10.43;;;-1.20;99.90;;;;;;5090459;28;20097;-72
2022/11/27 02:30:35;;;;;;;17.73;11.47;;;-1.20;99.90;;;;;;5090613;28;20171;-72
2022/11/27 02:33:07;;;;;;;15.43;10.27;;;-1.20;99.90;;;;;;5090429;28;20039;-72
2022/11/27 02:35:45;;;;;;;16.77;11.33;;;-1.20;99.90;;;;;;5090541;28;20384;-72
2022/11/27 02:38:19;;;;;;;18.83;11.07;;;-1.20;99.90;;;;;;5090389;28;20461;-72
2022/11/27 02:41:03;;;;;;;17.70;11.07;;;-1.20;99.90;;;;;;5090652;28;20051;-72
2022/11/27 02:43:41;;;;;;;16.43;10.40;;;-1.30;99.90;;;;;;5090959;28;20419;-72
2022/11/27 02:46:09;;;;;;;18.63;10.43;;;-1.30;99.90;;;;;;5091379;28;20039;-72
2022/11/27 02:48:48;;;;;;;17.20;10.97;;;-1.30;99.90;;;;;;5095372;28;20044;-71
2022/11/27 02:51:18;;;;;;;19.80;11.30;;;-1.30;99.90;;;;;;5097550;28;20035;-72
2022/11/27 02:53:50;;;;;;;16.30;10.67;;;-1.30;99.90;;;;;;5097175;28;20476;-71
2022/11/27 02:56:19;;;;;;;18.23;10.63;;;-1.30;99.90;;;;;;5097522;28;20131;-71
2022/11/27 02:58:47;;;;;;;17.20;9.90;;;-1.30;99.90;;;;;;5097505;28;20043;-71
2022/11/27 03:01:14;;;;;;;14.63;9.87;;;-1.30;99.90;;;;;;5097309;28;20024;-71
2022/11/27 03:03:45;;;;;;;17.77;11.30;;;-1.30;99.90;;;;;;5097142;28;20101;-71
2022/11/27 03:06:17;;;;;;;16.20;10.40;;;-1.40;99.90;;;;;;5097338;28;20097;-71
2022/11/27 03:08:53;;;;;;;18.27;10.87;;;-1.40;99.90;;;;;;5097334;28;20420;-71
2022/11/27 03:11:19;;;;;;;17.47;10.60;;;-1.40;99.90;;;;;;5097339;28;20020;-71
2022/11/27 03:13:52;;;;;;;15.97;10.03;;;-1.40;99.90;;;;;;5097205;28;20081;-71
2022/11/27 03:16:49;;;;;;;14.23;8.87;;;-1.40;99.90;;;;;;5097365;28;20024;-71
2022/11/27 03:19:36;;;;;;;14.40;9.83;;;-1.40;99.90;;;;;;5097160;28;20028;-71
2022/11/27 03:22:03;;;;;;;15.77;10.60;;;-1.50;99.90;;;;;;5097253;28;20032;-71
2022/11/27 03:24:31;;;;;;;16.73;10.43;;;-1.50;99.90;;;;;;5097210;28;20131;-71
2022/11/27 03:26:58;;;;;;;15.13;9.57;;;-1.50;99.90;;;;;;5096896;28;20426;-71
2022/11/27 03:29:32;;;;;;;17.47;10.13;;;-1.50;99.90;;;;;;5097126;28;20117;-71
2022/11/27 03:31:58;;;;;;;16.67;10.23;;;-1.50;99.90;;;;;;5097159;28;20044;-71
2022/11/27 03:34:24;;;;;;;18.63;11.20;;;-1.50;99.90;;;;;;5096833;28;20565;-72
2022/11/27 03:36:49;;;;;;;17.37;11.30;;;-1.60;99.90;;;;;;5096943;28;20032;-71
2022/11/27 03:39:15;;;;;;;16.03;10.13;;;-1.60;99.90;;;;;;5096790;28;20531;-71
2022/11/27 03:42:16;;;;;;;15.57;9.60;;;-1.60;99.90;;;;;;5097001;28;20384;-71
2022/11/27 03:45:07;;;;;;;15.47;10.57;;;-1.60;99.90;;;;;;5097033;28;20024;-71
2022/11/27 03:48:09;;;;;;;15.97;10.27;;;-1.70;99.90;;;;;;5080800;28;20020;-71
2022/11/27 03:51:01;;;;;;;19.07;11.33;;;-1.80;99.90;;;;;;5097106;28;20036;-71
2022/11/27 03:53:48;;;;;;;19.17;12.53;;;-1.80;99.90;;;;;;5096702;28;20529;-71
2022/11/27 03:56:42;;;;;;;18.33;12.43;;;-1.90;99.90;;;;;;5097076;28;20032;-72
2022/11/27 03:59:10;;;;;;;20.87;12.03;;;-1.90;99.90;;;;;;5095374;28;20035;-72
2022/11/27 04:01:36;;;;;;;19.20;11.90;;;-1.90;99.90;;;;;;5093297;28;20487;-72
2022/11/27 04:04:02;;;;;;;20.13;12.50;;;-1.90;99.90;;;;;;5093614;28;20043;-73
2022/11/27 04:06:27;;;;;;;20.80;14.53;;;-2.00;99.90;;;;;;5093371;28;20020;-72
2022/11/27 04:08:53;;;;;;;24.40;14.40;;;-2.00;99.90;;;;;;5093366;28;20055;-72
2022/11/27 04:11:18;;;;;;;24.37;15.43;;;-2.00;99.90;;;;;;5093343;28;20032;-72
2022/11/27 04:13:44;;;;;;;26.83;16.43;;;-2.10;99.90;;;;;;5093254;28;20448;-72
2022/11/27 04:16:10;;;;;;;27.37;17.47;;;-2.10;99.90;;;;;;5093305;28;20437;-72
2022/11/27 04:18:35;;;;;;;31.17;18.93;;;-2.20;99.90;;;;;;5093003;28;20474;-73
2022/11/27 04:21:01;;;;;;;28.03;18.67;;;-2.20;99.90;;;;;;5092986;28;20457;-73
2022/11/27 04:23:26;;;;;;;32.77;20.03;;;-2.20;99.90;;;;;;5093065;28;20024;-75
2022/11/27 04:25:52;;;;;;;34.93;20.03;;;-2.30;99.90;;;;;;5092947;28;20024;-73
2022/11/27 04:28:18;;;;;;;33.10;21.80;;;-2.30;99.90;;;;;;5092883;28;20460;-73
2022/11/27 04:30:44;;;;;;;36.87;21.93;;;-2.30;99.90;;;;;;5092682;28;20077;-73
2022/11/27 04:33:09;;;;;;;45.13;23.77;;;-2.40;99.90;;;;;;5092601;28;20064;-73
2022/11/27 04:35:35;;;;;;;42.07;22.73;;;-2.40;99.90;;;;;;5092941;28;20067;-73
2022/11/27 04:38:01;;;;;;;41.20;22.97;;;-2.40;99.90;;;;;;5092660;28;20040;-73
2022/11/27 04:40:27;;;;;;;34.83;21.73;;;-2.50;99.90;;;;;;5092804;28;20418;-73
2022/11/27 04:42:52;;;;;;;39.27;23.10;;;-2.50;99.90;;;;;;5092608;28;20038;-73
2022/11/27 04:45:18;;;;;;;38.87;22.20;;;-2.50;99.90;;;;;;5092617;28;20032;-73
2022/11/27 04:47:43;;;;;;;35.07;21.20;;;-2.50;99.90;;;;;;5092267;28;20044;-73
2022/11/27 04:50:09;;;;;;;37.87;22.97;;;-2.50;99.90;;;;;;5092428;28;20388;-73
2022/11/27 04:52:35;;;;;;;35.50;21.23;;;-2.40;99.90;;;;;;5092207;28;20040;-73
2022/11/27 04:55:02;;;;;;;32.00;21.27;;;-2.40;99.90;;;;;;5092490;28;20075;-73
2022/11/27 04:57:28;;;;;;;33.20;20.87;;;-2.40;99.90;;;;;;5092220;28;20032;-73
2022/11/27 04:59:54;;;;;;;33.90;20.67;;;-2.40;99.90;;;;;;5092241;28;20097;-73
2022/11/27 05:02:19;;;;;;;31.47;20.83;;;-2.40;99.90;;;;;;5092156;28;20107;-73
2022/11/27 05:04:45;;;;;;;30.07;19.70;;;-2.30;99.90;;;;;;5091961;28;20453;-73
2022/11/27 05:07:10;;;;;;;31.70;19.53;;;-2.40;99.90;;;;;;5092086;28;20055;-73
2022/11/27 05:09:36;;;;;;;29.73;19.17;;;-2.30;99.90;;;;;;5092196;28;20024;-73
2022/11/27 05:12:02;;;;;;;30.97;18.90;;;-2.30;99.90;;;;;;5073408;28;20077;-73
2022/11/27 05:14:28;;;;;;;27.13;18.13;;;-2.30;99.90;;;;;;5092200;28;20028;-73
2022/11/27 05:16:57;;;;;;;28.40;18.43;;;-2.30;99.90;;;;;;5091740;28;20487;-73
2022/11/27 05:19:25;;;;;;;30.43;18.43;;;-2.30;99.90;;;;;;5091854;28;20069;-73
2022/11/27 05:21:52;;;;;;;29.70;19.53;;;-2.30;99.90;;;;;;5091613;28;20032;-73
2022/11/27 05:24:20;;;;;;;30.03;19.53;;;-2.30;99.90;;;;;;5091858;28;20488;-73
2022/11/27 05:26:46;;;;;;;30.57;19.67;;;-2.30;99.90;;;;;;5091794;28;20039;-73
2022/11/27 05:29:13;;;;;;;29.90;19.37;;;-2.30;99.90;;;;;;5091771;28;20032;-73
2022/11/27 05:31:39;;;;;;;28.87;18.63;;;-2.30;99.90;;;;;;5091786;28;20403;-73
2022/11/27 05:34:05;;;;;;;27.03;17.90;;;-2.30;99.90;;;;;;5091754;28;20043;-72
2022/11/27 05:36:31;;;;;;;27.00;17.70;;;-2.40;99.90;;;;;;5091660;28;20028;-73
2022/11/27 05:38:58;;;;;;;25.20;17.50;;;-2.40;99.90;;;;;;5091498;28;20032;-73
2022/11/27 05:41:24;;;;;;;26.33;16.83;;;-2.40;99.90;;;;;;5091417;28;20032;-73
2022/11/27 05:43:50;;;;;;;25.97;17.43;;;-2.40;99.90;;;;;;5091567;28;20101;-73
2022/11/27 05:46:18;;;;;;;29.20;18.50;;;-2.40;99.90;;;;;;5091521;28;20032;-73
2022/11/27 05:48:43;;;;;;;26.67;17.47;;;-2.40;99.90;;;;;;5091523;28;20044;-73
2022/11/27 05:51:09;;;;;;;24.67;16.30;;;-2.50;99.90;;;;;;5091364;28;20541;-73
2022/11/27 05:53:34;;;;;;;25.97;16.63;;;-2.50;99.90;;;;;;5091607;28;20032;-73
2022/11/27 05:56:05;;;;;;;25.93;16.33;;;-2.50;99.90;;;;;;5091198;28;20460;-73
2022/11/27 05:58:31;;;;;;;22.63;14.57;;;-2.50;99.90;;;;;;5091049;28;20043;-73
2022/11/27 06:00:58;;;;;;;22.27;14.07;;;-2.50;99.90;;;;;;5091375;28;20117;-73
2022/11/27 06:03:24;;;;;;;26.20;15.27;;;-2.50;99.90;;;;;;5091388;28;20032;-73
2022/11/27 06:05:50;;;;;;;20.27;13.53;;;-2.40;99.90;;;;;;5091143;28;20024;-73
2022/11/27 06:08:16;;;;;;;19.57;12.97;;;-2.50;99.90;;;;;;5091124;28;20112;-73
2022/11/27 06:10:41;;;;;;;18.50;11.50;;;-2.50;99.90;;;;;;5091117;28;20103;-73
2022/11/27 06:13:07;;;;;;;16.27;10.50;;;-2.40;99.90;;;;;;5090946;28;20498;-73
2022/11/27 06:15:32;;;;;;;14.20;10.00;;;-2.40;99.90;;;;;;5090939;28;20039;-74
2022/11/27 06:17:58;;;;;;;15.47;9.97;;;-2.40;99.90;;;;;;5090801;28;20128;-73
2022/11/27 06:20:24;;;;;;;16.97;10.43;;;-2.50;99.90;;;;;;5090969;28;20039;-73
2022/11/27 06:22:50;;;;;;;33.50;14.43;;;-2.40;99.90;;;;;;5089842;28;20425;-73
2022/11/27 06:25:16;;;;;;;45.77;19.80;;;-2.40;99.90;;;;;;5090771;28;20179;-73
2022/11/27 06:27:41;;;;;;;41.00;19.03;;;-2.50;99.90;;;;;;5090666;28;20122;-73
2022/11/27 06:30:08;;;;;;;34.93;15.63;;;-2.40;99.90;;;;;;5090412;28;20197;-73
2022/11/27 06:32:33;;;;;;;24.77;12.77;;;-2.40;99.90;;;;;;5090523;28;20024;-73
2022/11/27 06:34:59;;;;;;;27.37;13.03;;;-2.40;99.90;;;;;;5090740;28;20050;-73
2022/11/27 06:37:25;;;;;;;22.80;12.80;;;-2.50;99.90;;;;;;5090399;28;20039;-73
2022/11/27 06:39:50;;;;;;;18.20;10.97;;;-2.50;99.90;;;;;;5090586;28;20036;-73
2022/11/27 06:42:16;;;;;;;17.03;9.90;;;-2.50;99.90;;;;;;5090506;28;20036;-73
2022/11/27 06:44:42;;;;;;;19.00;10.87;;;-2.50;99.90;;;;;;5090613;28;20036;-73
2022/11/27 06:47:07;;;;;;;16.10;10.50;;;-2.50;99.90;;;;;;5090526;28;20093;-73
2022/11/27 06:49:33;;;;;;;17.90;10.60;;;-2.50;99.90;;;;;;5090280;28;20459;-73
2022/11/27 06:51:59;;;;;;;15.53;9.80;;;-2.50;99.90;;;;;;5090402;28;20525;-73
2022/11/27 06:54:25;;;;;;;16.47;9.90;;;-2.50;99.90;;;;;;5090472;28;20028;-73
2022/11/27 06:56:51;;;;;;;13.03;9.17;;;-2.60;99.90;;;;;;5091276;28;20457;-72
2022/11/27 06:59:17;;;;;;;14.70;9.43;;;-2.60;99.90;;;;;;5090928;28;20024;-72
2022/11/27 07:01:43;;;;;;;14.50;10.23;;;-2.50;99.90;;;;;;5091190;28;20032;-72
2022/11/27 07:04:11;;;;;;;16.87;10.97;;;-2.50;99.90;;;;;;5091070;28;20039;-72
2022/11/27 07:06:37;;;;;;;18.97;11.90;;;-2.50;99.90;;;;;;5072200;28;20031;-72
2022/11/27 07:09:03;;;;;;;20.57;12.87;;;-2.50;99.90;;;;;;5090150;28;20020;-72
2022/11/27 07:11:30;;;;;;;18.33;11.37;;;-2.50;99.90;;;;;;5090117;28;20396;-72
2022/11/27 07:13:58;;;;;;;18.27;11.47;;;-2.50;99.90;;;;;;5089515;28;20071;-72
2022/11/27 07:16:24;;;;;;;20.93;13.17;;;-2.50;99.90;;;;;;5089534;28;20070;-72
2022/11/27 07:18:53;;;;;;;22.57;14.27;;;-2.50;99.90;;;;;;5090248;28;20077;-75
2022/11/27 07:21:19;;;;;;;25.37;14.33;;;-2.50;99.90;;;;;;5091332;28;20066;-78
2022/11/27 07:23:45;;;;;;;21.27;13.43;;;-2.50;99.90;;;;;;5089669;28;20101;-77
2022/11/27 07:26:12;;;;;;;24.63;15.23;;;-2.50;99.90;;;;;;5089626;28;20058;-78
2022/11/27 07:28:38;;;;;;;23.27;13.80;;;-2.40;99.90;;;;;;5087524;28;20157;-80
2022/11/27 07:31:04;;;;;;;22.73;14.57;;;-2.40;99.90;;;;;;5071240;28;20103;-80
2022/11/27 07:33:30;;;;;;;117.50;22.90;;;-2.30;99.90;;;;;;5089817;28;20036;-80
2022/11/27 07:36:05;;;;;;;43.70;24.87;;;-2.30;99.90;;;;;;5093069;28;20039;-81
2022/11/27 07:38:31;;;;;;;29.43;20.47;;;-2.20;99.90;;;;;;5093465;28;20028;-80
2022/11/27 07:41:01;;;;;;;39.57;25.47;;;-2.20;99.90;;;;;;5091590;28;20172;-80
2022/11/27 07:43:27;;;;;;;33.97;21.17;;;-2.10;99.90;;;;;;5093222;28;20741;-80
2022/11/27 07:45:53;;;;;;;31.87;21.20;;;-2.10;99.90;;;;;;5076940;28;20073;-80
2022/11/27 07:48:18;;;;;;;40.03;25.70;;;-2.00;99.90;;;;;;5076272;28;20135;-80
2022/11/27 07:50:44;;;;;;;34.83;24.53;;;-2.00;99.90;;;;;;5092756;28;20027;-80
2022/11/27 07:53:09;;;;;;;37.33;23.73;;;-1.90;99.90;;;;;;5092651;28;20165;-80
2022/11/27 07:55:39;;;;;;;36.20;22.97;;;-1.90;99.90;;;;;;5092360;28;20074;-80
2022/11/27 07:58:06;;;;;;;36.43;21.93;;;-1.90;99.90;;;;;;5092852;28;20115;-77
2022/11/27 08:00:32;;;;;;;32.80;20.47;;;-1.80;99.90;;;;;;5092956;28;20400;-77
2022/11/27 08:02:59;;;;;;;26.40;18.07;;;-1.80;99.90;;;;;;5092328;28;20071;-77
2022/11/27 08:05:24;;;;;;;29.97;19.23;;;-1.80;99.90;;;;;;5093082;28;20108;-76
2022/11/27 08:07:50;;;;;;;28.43;19.37;;;-1.70;99.90;;;;;;5094401;28;20512;-76
2022/11/27 08:10:16;;;;;;;28.43;18.60;;;-1.70;99.90;;;;;;5102298;28;20039;-76
2022/11/27 08:12:41;;;;;;;25.13;16.77;;;-1.60;99.90;;;;;;5102118;28;20076;-76
2022/11/27 08:15:08;;;;;;;25.47;16.87;;;-1.50;99.90;;;;;;5102901;28;20046;-76
2022/11/27 08:17:33;;;;;;;23.57;16.33;;;-1.50;99.90;;;;;;5102341;28;20032;-76
2022/11/27 08:19:59;;;;;;;23.13;15.73;;;-1.40;99.90;;;;;;5101976;28;20096;-76
2022/11/27 08:22:25;;;;;;;21.73;16.03;;;-1.40;99.90;;;;;;5101868;28;20031;-76
2022/11/27 08:24:50;;;;;;;22.57;15.43;;;-1.30;99.90;;;;;;5100999;28;20040;-76
2022/11/27 08:27:16;;;;;;;20.07;15.03;;;-1.20;99.90;;;;;;5095922;28;20449;-76
2022/11/27 08:29:42;;;;;;;23.83;16.20;;;-1.20;99.90;;;;;;5092273;28;20036;-76
2022/11/27 08:32:08;;;;;;;18.20;13.87;;;-1.10;99.90;;;;;;5091976;28;20365;-76
2022/11/27 08:34:34;;;;;;;20.67;14.57;;;-1.10;99.90;;;;;;5092199;28;20111;-76
2022/11/27 08:37:00;;;;;;;21.70;14.93;;;-1.00;99.90;;;;;;5091729;28;20121;-76
2022/11/27 08:39:26;;;;;;;22.03;15.23;;;-0.90;99.90;;;;;;5092129;28;20496;-76
2022/11/27 08:41:53;;;;;;;20.10;13.93;;;-0.90;99.90;;;;;;5092116;28;20427;-77
2022/11/27 08:44:18;;;;;;;21.00;15.00;;;-0.80;99.90;;;;;;5090844;28;20108;-76
2022/11/27 08:46:44;;;;;;;20.87;14.97;;;-0.80;99.90;;;;;;5091100;28;20479;-77
2022/11/27 08:49:09;;;;;;;20.97;15.20;;;-0.70;99.90;;;;;;5091657;28;20063;-78
2022/11/27 08:51:35;;;;;;;24.53;16.97;;;-0.60;99.90;;;;;;5091783;28;20491;-78
2022/11/27 08:54:01;;;;;;;20.37;14.00;;;-0.60;99.90;;;;;;5092049;28;20063;-79
2022/11/27 08:56:27;;;;;;;20.93;14.17;;;-0.50;99.90;;;;;;5091527;28;20057;-79
2022/11/27 08:58:53;;;;;;;21.67;15.43;;;-0.40;99.90;;;;;;5091420;28;20036;-79
2022/11/27 09:01:29;;;;;;;18.17;12.90;;;-0.30;99.90;;;;;;5091335;28;20024;-79
2022/11/27 09:03:55;;;;;;;20.17;14.13;;;-0.20;99.90;;;;;;5091457;28;20032;-79
2022/11/27 09:06:23;;;;;;;19.73;14.10;;;-0.20;99.90;;;;;;5091912;28;20027;-79
2022/11/27 09:08:49;;;;;;;21.30;14.13;;;-0.10;99.90;;;;;;5092026;28;20126;-79
2022/11/27 09:11:17;;;;;;;20.13;14.37;;;-0.10;99.90;;;;;;5092345;28;20059;-79
2022/11/27 09:13:43;;;;;;;20.57;14.27;;;0.00;99.90;;;;;;5091902;28;20148;-79
2022/11/27 09:16:11;;;;;;;23.40;16.53;;;0.00;99.90;;;;;;5091666;28;20445;-80
2022/11/27 09:18:37;;;;;;;20.90;14.63;;;0.00;99.90;;;;;;5091734;28;20051;-79
2022/11/27 09:21:08;;;;;;;21.83;15.20;;;0.10;99.90;;;;;;5091804;28;20028;-80
2022/11/27 09:23:36;;;;;;;20.13;14.53;;;0.10;99.90;;;;;;5091845;28;20032;-80
2022/11/27 09:26:04;;;;;;;17.33;13.80;;;0.20;99.90;;;;;;5081078;28;20029;-80
2022/11/27 09:28:31;;;;;;;23.13;15.97;;;0.20;99.90;;;;;;5071564;28;20036;-79
2022/11/27 09:30:58;;;;;;;19.27;14.17;;;0.30;99.90;;;;;;5071323;28;20048;-79
2022/11/27 09:33:27;;;;;;;22.27;16.03;;;0.40;99.90;;;;;;5074414;28;20043;-80
2022/11/27 09:35:52;;;;;;;20.50;14.57;;;0.50;99.90;;;;;;5091497;28;20074;-79
2022/11/27 09:38:19;;;;;;;20.30;15.10;;;0.60;99.90;;;;;;5091766;28;20810;-79
2022/11/27 09:40:48;;;;;;;19.27;14.30;;;0.70;99.90;;;;;;5091137;28;20465;-79
2022/11/27 09:43:15;;;;;;;28.33;19.53;;;0.80;99.90;;;;;;5092060;28;20036;-79
2022/11/27 09:45:47;;;;;;;22.17;15.53;;;0.80;99.90;;;;;;5092334;28;20035;-79
2022/11/27 09:48:32;;;;;;;21.63;16.83;;;0.90;99.90;;;;;;5073716;28;20105;-79
2022/11/27 09:51:00;;;;;;;21.05;14.77;;;1.00;99.90;;;;;;5092196;28;20024;-79
2022/11/27 09:53:32;;;;;;;20.17;14.60;;;1.10;99.90;;;;;;5091243;28;20028;-79
2022/11/27 09:56:02;;;;;;;17.87;14.63;;;1.10;99.90;;;;;;5090762;28;20082;-79
2022/11/27 09:58:38;;;;;;;19.83;14.33;;;1.20;99.90;;;;;;5087142;28;20108;-79
2022/11/27 10:01:42;;;;;;;15.90;12.03;;;1.30;99.90;;;;;;5091195;28;20043;-79
2022/11/27 10:04:11;;;;;;;15.13;11.40;;;1.50;99.90;;;;;;5086026;28;20107;-79
2022/11/27 10:06:42;;;;;;;17.20;13.27;;;1.70;99.90;;;;;;5090867;28;20105;-80
2022/11/27 10:09:34;;;;;;;15.40;12.80;;;1.90;99.90;;;;;;5091283;28;20024;-80
2022/11/27 10:12:02;;;;;;;14.93;11.43;;;2.10;99.90;;;;;;5090971;28;20024;-80
2022/11/27 10:14:59;;;;;;;17.50;12.80;;;2.20;99.90;;;;;;5090900;28;20020;-79
2022/11/27 10:17:47;;;;;;;14.97;12.30;;;2.20;99.90;;;;;;5090797;28;20020;-80
2022/11/27 10:20:47;;;;;;;18.53;12.60;;;2.20;99.90;;;;;;5090708;28;20032;-79
2022/11/27 10:23:32;;;;;;;15.77;12.37;;;2.20;99.90;;;;;;5090999;28;20038;-79
2022/11/27 10:26:08;;;;;;;20.43;14.80;;;2.20;99.90;;;;;;5090911;28;20924;-79
2022/11/27 10:29:12;;;;;;;18.60;13.83;;;2.20;99.90;;;;;;5090804;28;20027;-79
2022/11/27 10:31:58;;;;;;;19.90;15.13;;;2.20;99.90;;;;;;5036469;28;20040;-84
2022/11/27 10:34:40;;;;;;;18.85;14.52;;;2.20;99.90;;;;;;5073876;28;20020;-94
2022/11/27 10:37:20;;;;;;;18.73;13.87;;;2.20;99.90;;;;;;5056134;28;20074;-79
2022/11/27 10:39:52;;;;;;;49.30;14.70;;;2.30;99.90;;;;;;5070720;28;20097;-82
2022/11/27 10:42:24;;;;;;;23.57;13.80;;;2.30;99.90;;;;;;5070376;28;20016;-80
2022/11/27 10:45:13;;;;;;;31.87;14.87;;;2.30;99.90;;;;;;5070994;28;20094;-80
2022/11/27 10:47:42;;;;;;;35.10;13.77;;;2.20;99.90;;;;;;5059239;28;20049;-81
2022/11/27 10:50:20;;;;;;;26.20;14.20;;;2.20;99.90;;;;;;5070268;28;20025;-88
2022/11/27 10:52:59;;;;;;;40.07;14.50;;;2.10;99.90;;;;;;5070281;28;20075;-82
2022/11/27 10:55:58;;;;;;;32.67;14.17;;;2.10;99.90;;;;;;5070331;28;20110;-81
2022/11/27 10:58:50;;;;;;;28.27;16.73;;;2.00;99.90;;;;;;5070281;28;20056;-82
2022/11/27 11:01:18;;;;;;;71.07;15.63;;;2.00;99.90;;;;;;5089352;28;20028;-81
2022/11/27 11:03:44;;;;;;;45.63;15.03;;;2.10;99.90;;;;;;5090996;28;20095;-82
2022/11/27 11:06:19;;;;;;;31.73;15.40;;;2.10;99.90;;;;;;5091038;28;20528;-82
2022/11/27 11:08:45;;;;;;;;;;;2.10;99.90;;;;;;5092719;28;20024;-82
2022/11/27 11:11:10;;;;;;;27.47;12.70;;;2.10;99.90;;;;;;5095359;28;19935;-81
2022/11/27 11:13:39;;;;;;;31.30;12.80;;;2.10;99.90;;;;;;5095623;28;20038;-81
2022/11/27 11:16:15;;;;;;;34.13;13.60;;;2.10;99.90;;;;;;5095554;28;20055;-82
2022/11/27 11:18:45;;;;;;;19.50;12.47;;;2.10;99.90;;;;;;5095551;28;20020;-82
2022/11/27 11:21:25;;;;;;;73.83;15.10;;;2.10;99.90;;;;;;5095276;28;20016;-81
2022/11/27 11:24:02;;;;;;;31.53;14.53;;;2.10;99.90;;;;;;5095129;28;20478;-81
2022/11/27 11:26:36;;;;;;;30.07;14.50;;;2.10;99.90;;;;;;5095132;28;20024;-81
2022/11/27 11:29:05;;;;;;;70.87;12.70;;;2.00;99.90;;;;;;5095097;28;20044;-81
2022/11/27 11:31:36;;;;;;;68.17;14.60;;;2.00;99.90;;;;;;5094860;28;20104;-81
2022/11/27 11:34:11;;;;;;;80.97;13.23;;;1.80;99.90;;;;;;5095881;28;20085;-82
2022/11/27 11:36:37;;;;;;;80.77;12.37;;;1.80;99.90;;;;;;5096625;28;20099;-80
2022/11/27 11:39:03;;;;;;;45.23;11.10;;;1.70;99.90;;;;;;5095230;28;20455;-80
2022/11/27 11:41:38;;;;;;;78.27;10.83;;;1.70;99.90;;;;;;5095060;28;20028;-80
2022/11/27 11:44:04;;;;;;;30.30;10.80;;;1.70;99.90;;;;;;5095240;28;20020;-80
2022/11/27 11:46:32;;;;;;;50.50;11.80;;;1.70;99.90;;;;;;5092283;28;20484;-80
2022/11/27 11:49:18;;;;;;;33.30;11.40;;;1.60;99.90;;;;;;5089951;28;20040;-78
2022/11/27 11:52:25;;;;;;;49.93;12.20;;;1.60;99.90;;;;;;5077416;28;20030;-78
2022/11/27 11:54:57;;;;;;;42.83;12.73;;;1.70;99.90;;;;;;5088733;28;20024;-78
2022/11/27 11:57:29;;;;;;;50.00;13.97;;;1.60;99.90;;;;;;5083920;28;20024;-78
2022/11/27 12:00:15;;;;;;;76.10;22.93;;;1.60;99.90;;;;;;5090318;28;20027;-78
2022/11/27 12:02:53;;;;;;;40.33;19.57;;;1.60;99.90;;;;;;5093975;28;20039;-79
2022/11/27 12:05:24;;;;;;;40.77;11.40;;;1.60;99.90;;;;;;5087026;28;20024;-78
2022/11/27 12:07:55;;;;;;;41.20;14.77;;;1.60;99.90;;;;;;5092865;28;20020;-79
2022/11/27 12:10:32;;;;;;;41.03;19.40;;;1.50;99.90;;;;;;5088211;28;20051;-79
2022/11/27 12:13:21;;;;;;;43.13;17.77;;;1.50;99.90;;;;;;5081807;28;20024;-79
2022/11/27 12:15:58;;;;;;;144.63;44.83;;;1.40;99.90;;;;;;5080039;28;20035;-81
2022/11/27 12:18:42;;;;;;;26.17;11.57;;;1.50;99.90;;;;;;5089824;28;20078;-80
2022/11/27 12:21:16;;;;;;;16.50;11.53;;;1.50;99.90;;;;;;5085763;28;20528;-78
2022/11/27 12:24:01;;;;;;;34.95;28.83;;;1.50;99.90;;;;;;5088201;28;20020;-78
2022/11/27 12:26:48;;;;;;;122.23;40.60;;;1.50;99.90;;;;;;5079499;28;20036;-79
2022/11/27 12:29:19;;;;;;;39.77;13.03;;;1.60;99.90;;;;;;5093384;28;20131;-79
2022/11/27 12:32:03;;;;;;;16.07;10.53;;;1.70;99.90;;;;;;5086078;28;20032;-79
2022/11/27 12:34:46;;;;;;;21.77;10.63;;;1.60;99.90;;;;;;5070775;28;20040;-80
2022/11/27 12:37:35;;;;;;;26.43;11.23;;;1.60;99.90;;;;;;5079611;28;20087;-79
2022/11/27 12:40:31;;;;;;;17.43;10.53;;;1.70;99.90;;;;;;5069333;28;20036;-80
2022/11/27 12:43:14;;;;;;;20.58;11.77;;;1.60;99.90;;;;;;5092490;28;20020;-80
2022/11/27 12:45:42;;;;;;;19.37;12.50;;;1.50;99.90;;;;;;5092676;28;20479;-81
2022/11/27 12:48:11;;;;;;;21.13;11.90;;;1.50;99.90;;;;;;5077918;28;20033;-81